sensor_id;sensor_type;location;lat;lon;timestamp;P1;durP1;ratioP1;P2;durP2;ratioP2
52396;SDS011;38322;53.108;6.308;2022-12-07T06:02:58;2.50;;;0.20;;
52396;SDS011;38322;53.108;6.308;2022-12-07T06:05:24;4.63;;;0.75;;
52396;SDS011;38322;53.108;6.308;2022-12-07T06:07:49;5.72;;;0.50;;
52396;SDS011;38322;53.108;6.308;2022-12-07T06:10:15;7.00;;;0.75;;
52396;SDS011;38322;53.108;6.308;2022-12-07T06:12:41;6.97;;;0.63;;
52396;SDS011;38322;53.108;6.308;2022-12-07T06:15:08;8.65;;;0.73;;
52396;SDS011;38322;53.108;6.308;2022-12-07T06:17:35;4.07;;;0.43;;
52396;SDS011;38322;53.108;6.308;2022-12-07T06:20:02;7.15;;;0.82;;
52396;SDS011;38322;53.108;6.308;2022-12-07T06:22:28;9.45;;;0.82;;
52396;SDS011;38322;53.108;6.308;2022-12-07T06:24:54;4.45;;;0.57;;
52396;SDS011;38322;53.108;6.308;2022-12-07T06:27:20;3.05;;;1.30;;
52396;SDS011;38322;53.108;6.308;2022-12-07T06:29:46;3.67;;;0.50;;
52396;SDS011;38322;53.108;6.308;2022-12-07T06:32:12;12.27;;;2.08;;
52396;SDS011;38322;53.108;6.308;2022-12-07T06:34:37;2.17;;;0.20;;
52396;SDS011;38322;53.108;6.308;2022-12-07T06:37:04;8.70;;;1.73;;
52396;SDS011;38322;53.108;6.308;2022-12-07T06:39:30;2.47;;;0.30;;
52396;SDS011;38322;53.108;6.308;2022-12-07T06:41:56;6.60;;;1.10;;
52396;SDS011;38322;53.108;6.308;2022-12-07T06:44:22;3.30;;;0.75;;
52396;SDS011;38322;53.108;6.308;2022-12-07T06:46:49;10.10;;;2.03;;
52396;SDS011;38322;53.108;6.308;2022-12-07T06:49:15;5.13;;;0.55;;
52396;SDS011;38322;53.108;6.308;2022-12-07T06:51:41;10.55;;;0.40;;
52396;SDS011;38322;53.108;6.308;2022-12-07T06:54:08;7.15;;;0.82;;
52396;SDS011;38322;53.108;6.308;2022-12-07T06:56:36;3.45;;;0.30;;
52396;SDS011;38322;53.108;6.308;2022-12-07T06:59:02;5.35;;;0.73;;
52396;SDS011;38322;53.108;6.308;2022-12-07T07:01:31;8.43;;;0.88;;
52396;SDS011;38322;53.108;6.308;2022-12-07T07:03:58;6.10;;;0.50;;
52396;SDS011;38322;53.108;6.308;2022-12-07T07:06:24;14.90;;;1.00;;
52396;SDS011;38322;53.108;6.308;2022-12-07T07:08:50;3.17;;;1.02;;
52396;SDS011;38322;53.108;6.308;2022-12-07T07:11:16;9.98;;;0.82;;
52396;SDS011;38322;53.108;6.308;2022-12-07T07:13:42;10.88;;;1.40;;
52396;SDS011;38322;53.108;6.308;2022-12-07T07:16:08;5.63;;;1.73;;
52396;SDS011;38322;53.108;6.308;2022-12-07T07:18:34;12.88;;;1.17;;
52396;SDS011;38322;53.108;6.308;2022-12-07T07:21:00;4.80;;;0.43;;
52396;SDS011;38322;53.108;6.308;2022-12-07T07:23:26;4.53;;;0.60;;
52396;SDS011;38322;53.108;6.308;2022-12-07T07:25:52;10.55;;;0.80;;
52396;SDS011;38322;53.108;6.308;2022-12-07T07:28:18;4.75;;;1.13;;
52396;SDS011;38322;53.108;6.308;2022-12-07T07:30:44;8.07;;;0.90;;
52396;SDS011;38322;53.108;6.308;2022-12-07T07:33:10;2.53;;;0.57;;
52396;SDS011;38322;53.108;6.308;2022-12-07T07:35:36;4.75;;;1.23;;
52396;SDS011;38322;53.108;6.308;2022-12-07T07:38:03;11.32;;;1.73;;
52396;SDS011;38322;53.108;6.308;2022-12-07T07:40:29;8.80;;;1.30;;
52396;SDS011;38322;53.108;6.308;2022-12-07T07:42:55;6.53;;;1.20;;
52396;SDS011;38322;53.108;6.308;2022-12-07T07:45:22;11.00;;;1.65;;
52396;SDS011;38322;53.108;6.308;2022-12-07T07:47:49;13.63;;;1.65;;
52396;SDS011;38322;53.108;6.308;2022-12-07T07:50:15;5.82;;;0.80;;
52396;SDS011;38322;53.108;6.308;2022-12-07T07:52:42;7.07;;;0.80;;
52396;SDS011;38322;53.108;6.308;2022-12-07T07:55:08;9.63;;;2.55;;
52396;SDS011;38322;53.108;6.308;2022-12-07T07:57:35;8.90;;;1.20;;
52396;SDS011;38322;53.108;6.308;2022-12-07T08:00:03;10.18;;;1.98;;
52396;SDS011;38322;53.108;6.308;2022-12-07T08:02:29;11.20;;;1.58;;
52396;SDS011;38322;53.108;6.308;2022-12-07T08:04:55;4.25;;;1.42;;
52396;SDS011;38322;53.108;6.308;2022-12-07T08:07:21;9.75;;;1.08;;
52396;SDS011;38322;53.108;6.308;2022-12-07T08:09:47;13.18;;;1.70;;
52396;SDS011;38322;53.108;6.308;2022-12-07T08:12:13;10.45;;;1.20;;
52396;SDS011;38322;53.108;6.308;2022-12-07T08:14:38;8.02;;;0.75;;
52396;SDS011;38322;53.108;6.308;2022-12-07T08:17:04;6.68;;;0.60;;
52396;SDS011;38322;53.108;6.308;2022-12-07T08:19:30;8.13;;;1.52;;
52396;SDS011;38322;53.108;6.308;2022-12-07T08:21:56;8.55;;;0.93;;
52396;SDS011;38322;53.108;6.308;2022-12-07T08:24:22;6.57;;;0.75;;
52396;SDS011;38322;53.108;6.308;2022-12-07T08:26:50;5.43;;;1.50;;
52396;SDS011;38322;53.108;6.308;2022-12-07T08:29:15;6.07;;;2.20;;
52396;SDS011;38322;53.108;6.308;2022-12-07T08:31:41;3.50;;;0.70;;
52396;SDS011;38322;53.108;6.308;2022-12-07T08:34:07;9.80;;;0.80;;
52396;SDS011;38322;53.108;6.308;2022-12-07T08:36:35;5.18;;;0.85;;
52396;SDS011;38322;53.108;6.308;2022-12-07T08:39:02;12.60;;;1.67;;
52396;SDS011;38322;53.108;6.308;2022-12-07T08:41:28;8.13;;;2.00;;
52396;SDS011;38322;53.108;6.308;2022-12-07T08:43:55;7.05;;;1.13;;
52396;SDS011;38322;53.108;6.308;2022-12-07T08:46:26;6.70;;;0.50;;
52396;SDS011;38322;53.108;6.308;2022-12-07T08:49:10;6.32;;;0.63;;
52396;SDS011;38322;53.108;6.308;2022-12-07T08:51:39;7.07;;;0.98;;
52396;SDS011;38322;53.108;6.308;2022-12-07T08:54:07;6.82;;;0.60;;
52396;SDS011;38322;53.108;6.308;2022-12-07T08:56:35;7.65;;;1.20;;
52396;SDS011;38322;53.108;6.308;2022-12-07T08:59:02;7.60;;;1.02;;
52396;SDS011;38322;53.108;6.308;2022-12-07T09:01:29;7.53;;;0.77;;
52396;SDS011;38322;53.108;6.308;2022-12-07T09:03:55;11.10;;;1.48;;
52396;SDS011;38322;53.108;6.308;2022-12-07T09:06:21;15.38;;;1.77;;
52396;SDS011;38322;53.108;6.308;2022-12-07T09:08:47;9.88;;;2.42;;
52396;SDS011;38322;53.108;6.308;2022-12-07T09:11:16;10.75;;;1.27;;
52396;SDS011;38322;53.108;6.308;2022-12-07T09:13:42;8.25;;;1.45;;
52396;SDS011;38322;53.108;6.308;2022-12-07T09:16:08;3.78;;;0.90;;
52396;SDS011;38322;53.108;6.308;2022-12-07T09:18:33;12.90;;;0.90;;
52396;SDS011;38322;53.108;6.308;2022-12-07T09:20:59;11.05;;;2.67;;
52396;SDS011;38322;53.108;6.308;2022-12-07T09:23:25;8.90;;;1.92;;
52396;SDS011;38322;53.108;6.308;2022-12-07T09:25:51;4.80;;;0.98;;
52396;SDS011;38322;53.108;6.308;2022-12-07T09:28:17;8.25;;;0.90;;
52396;SDS011;38322;53.108;6.308;2022-12-07T09:30:48;12.38;;;1.88;;
52396;SDS011;38322;53.108;6.308;2022-12-07T09:33:14;4.72;;;1.00;;
52396;SDS011;38322;53.108;6.308;2022-12-07T09:35:44;8.50;;;2.03;;
52396;SDS011;38322;53.108;6.308;2022-12-07T09:38:12;15.13;;;1.60;;
52396;SDS011;38322;53.108;6.308;2022-12-07T09:40:38;9.88;;;1.33;;
52396;SDS011;38322;53.108;6.308;2022-12-07T09:43:04;7.85;;;2.03;;
52396;SDS011;38322;53.108;6.308;2022-12-07T09:45:32;7.85;;;1.20;;
52396;SDS011;38322;53.108;6.308;2022-12-07T09:48:00;5.47;;;1.92;;
52396;SDS011;38322;53.108;6.308;2022-12-07T09:50:29;2.85;;;0.93;;
52396;SDS011;38322;53.108;6.308;2022-12-07T09:52:58;4.63;;;0.98;;
52396;SDS011;38322;53.108;6.308;2022-12-07T09:55:34;6.07;;;2.42;;
52396;SDS011;38322;53.108;6.308;2022-12-07T09:58:02;8.32;;;1.77;;
52396;SDS011;38322;53.108;6.308;2022-12-07T10:00:29;9.63;;;2.70;;
52396;SDS011;38322;53.108;6.308;2022-12-07T10:02:55;7.97;;;1.33;;
52396;SDS011;38322;53.108;6.308;2022-12-07T10:05:26;8.32;;;0.70;;
52396;SDS011;38322;53.108;6.308;2022-12-07T10:08:02;9.38;;;0.82;;
52396;SDS011;38322;53.108;6.308;2022-12-07T10:10:34;3.60;;;0.45;;
52396;SDS011;38322;53.108;6.308;2022-12-07T10:13:06;5.47;;;1.00;;
52396;SDS011;38322;53.108;6.308;2022-12-07T10:15:42;8.38;;;0.47;;
52396;SDS011;38322;53.108;6.308;2022-12-07T10:23:27;6.13;;;0.95;;
52396;SDS011;38322;53.108;6.308;2022-12-07T10:25:53;8.80;;;1.40;;
52396;SDS011;38322;53.108;6.308;2022-12-07T10:28:20;5.40;;;1.38;;
52396;SDS011;38322;53.108;6.308;2022-12-07T10:33:28;9.00;;;1.25;;
52396;SDS011;38322;53.108;6.308;2022-12-07T10:35:57;5.20;;;0.90;;
52396;SDS011;38322;53.108;6.308;2022-12-07T10:38:24;6.35;;;0.50;;
52396;SDS011;38322;53.108;6.308;2022-12-07T10:41:02;5.18;;;0.80;;
52396;SDS011;38322;53.108;6.308;2022-12-07T10:43:30;10.30;;;1.23;;
52396;SDS011;38322;53.108;6.308;2022-12-07T10:48:50;8.60;;;1.80;;
52396;SDS011;38322;53.108;6.308;2022-12-07T10:54:00;8.43;;;0.75;;
52396;SDS011;38322;53.108;6.308;2022-12-07T11:01:45;5.97;;;0.60;;
52396;SDS011;38322;53.108;6.308;2022-12-07T11:04:35;10.90;;;1.98;;
52396;SDS011;38322;53.108;6.308;2022-12-07T11:10:00;5.53;;;0.50;;
52396;SDS011;38322;53.108;6.308;2022-12-07T11:12:32;6.32;;;1.55;;
52396;SDS011;38322;53.108;6.308;2022-12-07T11:23:02;1.67;;;0.28;;
52396;SDS011;38322;53.108;6.308;2022-12-07T11:33:43;2.17;;;0.30;;
52396;SDS011;38322;53.108;6.308;2022-12-07T11:38:55;3.65;;;0.40;;
52396;SDS011;38322;53.108;6.308;2022-12-07T11:41:28;3.33;;;0.73;;
52396;SDS011;38322;53.108;6.308;2022-12-07T11:46:37;5.78;;;0.45;;
52396;SDS011;38322;53.108;6.308;2022-12-07T11:49:15;4.00;;;0.25;;
52396;SDS011;38322;53.108;6.308;2022-12-07T11:51:45;3.60;;;0.25;;
52396;SDS011;38322;53.108;6.308;2022-12-07T11:54:21;1.58;;;0.38;;
52396;SDS011;38322;53.108;6.308;2022-12-07T11:56:51;3.83;;;0.20;;
52396;SDS011;38322;53.108;6.308;2022-12-07T12:01:52;2.42;;;0.30;;
52396;SDS011;38322;53.108;6.308;2022-12-07T12:07:15;4.05;;;0.20;;
52396;SDS011;38322;53.108;6.308;2022-12-07T12:09:48;6.25;;;0.93;;
52396;SDS011;38322;53.108;6.308;2022-12-07T12:12:30;5.25;;;0.45;;
52396;SDS011;38322;53.108;6.308;2022-12-07T12:15:13;2.72;;;0.47;;
52396;SDS011;38322;53.108;6.308;2022-12-07T12:23:16;2.75;;;0.20;;
52396;SDS011;38322;53.108;6.308;2022-12-07T12:25:45;7.40;;;0.43;;
52396;SDS011;38322;53.108;6.308;2022-12-07T12:33:35;3.28;;;0.30;;
52396;SDS011;38322;53.108;6.308;2022-12-07T12:44:38;1.52;;;0.20;;
52396;SDS011;38322;53.108;6.308;2022-12-07T12:50:10;1.95;;;0.47;;
52396;SDS011;38322;53.108;6.308;2022-12-07T12:57:33;1.88;;;0.40;;
52396;SDS011;38322;53.108;6.308;2022-12-07T13:00:01;4.38;;;0.47;;
52396;SDS011;38322;53.108;6.308;2022-12-07T13:02:48;3.85;;;0.40;;
52396;SDS011;38322;53.108;6.308;2022-12-07T13:05:18;4.75;;;0.70;;
52396;SDS011;38322;53.108;6.308;2022-12-07T13:15:50;4.38;;;1.35;;
52396;SDS011;38322;53.108;6.308;2022-12-07T13:23:26;3.35;;;0.63;;
52396;SDS011;38322;53.108;6.308;2022-12-07T13:31:40;3.85;;;0.98;;
52396;SDS011;38322;53.108;6.308;2022-12-07T13:36:53;4.85;;;0.63;;
52396;SDS011;38322;53.108;6.308;2022-12-07T13:39:20;7.10;;;1.60;;
52396;SDS011;38322;53.108;6.308;2022-12-07T13:44:39;2.58;;;0.20;;
52396;SDS011;38322;53.108;6.308;2022-12-07T13:49:44;4.00;;;0.43;;
52396;SDS011;38322;53.108;6.308;2022-12-07T13:52:15;4.07;;;0.30;;
52396;SDS011;38322;53.108;6.308;2022-12-07T13:54:44;6.32;;;0.43;;
52396;SDS011;38322;53.108;6.308;2022-12-07T13:57:13;1.80;;;0.20;;
52396;SDS011;38322;53.108;6.308;2022-12-07T13:59:40;3.90;;;0.50;;
52396;SDS011;38322;53.108;6.308;2022-12-07T14:02:18;4.20;;;0.35;;
52396;SDS011;38322;53.108;6.308;2022-12-07T14:04:46;6.80;;;0.52;;
52396;SDS011;38322;53.108;6.308;2022-12-07T14:09:54;3.90;;;0.73;;
52396;SDS011;38322;53.108;6.308;2022-12-07T14:12:21;1.88;;;0.30;;
52396;SDS011;38322;53.108;6.308;2022-12-07T14:14:48;5.03;;;0.40;;
52396;SDS011;38322;53.108;6.308;2022-12-07T14:17:16;3.20;;;0.47;;
52396;SDS011;38322;53.108;6.308;2022-12-07T14:19:45;5.20;;;0.32;;
52396;SDS011;38322;53.108;6.308;2022-12-07T14:22:19;4.28;;;0.50;;
52396;SDS011;38322;53.108;6.308;2022-12-07T14:24:57;3.25;;;0.30;;
52396;SDS011;38322;53.108;6.308;2022-12-07T14:27:24;4.18;;;1.23;;
52396;SDS011;38322;53.108;6.308;2022-12-07T14:29:58;5.40;;;0.98;;
52396;SDS011;38322;53.108;6.308;2022-12-07T14:32:26;2.35;;;0.15;;
52396;SDS011;38322;53.108;6.308;2022-12-07T14:37:23;2.88;;;0.77;;
52396;SDS011;38322;53.108;6.308;2022-12-07T14:39:49;9.68;;;0.95;;
52396;SDS011;38322;53.108;6.308;2022-12-07T14:42:15;2.97;;;0.52;;
52396;SDS011;38322;53.108;6.308;2022-12-07T14:44:41;10.40;;;0.60;;
52396;SDS011;38322;53.108;6.308;2022-12-07T14:47:09;6.00;;;0.47;;
52396;SDS011;38322;53.108;6.308;2022-12-07T14:49:35;4.85;;;0.30;;
52396;SDS011;38322;53.108;6.308;2022-12-07T14:52:01;6.38;;;0.73;;
52396;SDS011;38322;53.108;6.308;2022-12-07T14:54:27;6.30;;;0.88;;
52396;SDS011;38322;53.108;6.308;2022-12-07T14:56:56;3.55;;;0.40;;
52396;SDS011;38322;53.108;6.308;2022-12-07T14:59:22;1.52;;;0.60;;
52396;SDS011;38322;53.108;6.308;2022-12-07T15:01:48;11.05;;;1.05;;
52396;SDS011;38322;53.108;6.308;2022-12-07T15:04:13;3.35;;;0.20;;
52396;SDS011;38322;53.108;6.308;2022-12-07T15:06:39;1.73;;;0.60;;
52396;SDS011;38322;53.108;6.308;2022-12-07T15:09:08;5.70;;;0.70;;
52396;SDS011;38322;53.108;6.308;2022-12-07T15:11:36;3.13;;;0.85;;
52396;SDS011;38322;53.108;6.308;2022-12-07T15:14:02;4.85;;;1.35;;
52396;SDS011;38322;53.108;6.308;2022-12-07T15:16:34;2.97;;;0.75;;
52396;SDS011;38322;53.108;6.308;2022-12-07T15:19:02;1.13;;;0.32;;
52396;SDS011;38322;53.108;6.308;2022-12-07T15:21:28;3.80;;;0.38;;
52396;SDS011;38322;53.108;6.308;2022-12-07T15:23:54;3.75;;;0.90;;
52396;SDS011;38322;53.108;6.308;2022-12-07T15:26:20;2.90;;;0.40;;
52396;SDS011;38322;53.108;6.308;2022-12-07T15:28:45;1.67;;;0.40;;
52396;SDS011;38322;53.108;6.308;2022-12-07T15:31:15;3.55;;;1.25;;
52396;SDS011;38322;53.108;6.308;2022-12-07T15:33:42;11.73;;;1.27;;
52396;SDS011;38322;53.108;6.308;2022-12-07T15:36:20;3.60;;;0.88;;
52396;SDS011;38322;53.108;6.308;2022-12-07T15:38:47;2.45;;;0.60;;
52396;SDS011;38322;53.108;6.308;2022-12-07T15:41:13;5.93;;;0.80;;
52396;SDS011;38322;53.108;6.308;2022-12-07T15:43:39;3.78;;;0.75;;
52396;SDS011;38322;53.108;6.308;2022-12-07T15:46:28;3.35;;;0.40;;
52396;SDS011;38322;53.108;6.308;2022-12-07T15:48:55;7.30;;;0.88;;
52396;SDS011;38322;53.108;6.308;2022-12-07T15:51:21;4.93;;;0.30;;
52396;SDS011;38322;53.108;6.308;2022-12-07T15:53:47;1.88;;;0.60;;
52396;SDS011;38322;53.108;6.308;2022-12-07T15:56:13;4.13;;;0.80;;
52396;SDS011;38322;53.108;6.308;2022-12-07T15:58:39;5.13;;;0.93;;
52396;SDS011;38322;53.108;6.308;2022-12-07T16:01:10;1.40;;;0.38;;
52396;SDS011;38322;53.108;6.308;2022-12-07T16:03:37;4.32;;;1.35;;
52396;SDS011;38322;53.108;6.308;2022-12-07T16:06:03;1.55;;;0.47;;
52396;SDS011;38322;53.108;6.308;2022-12-07T16:08:30;5.43;;;1.40;;
52396;SDS011;38322;53.108;6.308;2022-12-07T16:10:56;2.60;;;0.52;;
52396;SDS011;38322;53.108;6.308;2022-12-07T16:13:22;4.85;;;1.33;;
52396;SDS011;38322;53.108;6.308;2022-12-07T16:15:48;1.48;;;0.70;;
52396;SDS011;38322;53.108;6.308;2022-12-07T16:18:13;2.45;;;0.88;;
52396;SDS011;38322;53.108;6.308;2022-12-07T16:20:39;4.70;;;0.93;;
52396;SDS011;38322;53.108;6.308;2022-12-07T16:23:05;3.85;;;1.02;;
52396;SDS011;38322;53.108;6.308;2022-12-07T16:25:32;1.77;;;0.30;;
52396;SDS011;38322;53.108;6.308;2022-12-07T16:27:58;2.28;;;1.02;;
52396;SDS011;38322;53.108;6.308;2022-12-07T16:30:24;0.60;;;0.20;;
52396;SDS011;38322;53.108;6.308;2022-12-07T16:32:50;6.25;;;0.25;;
52396;SDS011;38322;53.108;6.308;2022-12-07T16:35:17;2.53;;;0.45;;
52396;SDS011;38322;53.108;6.308;2022-12-07T16:37:43;0.80;;;0.40;;
52396;SDS011;38322;53.108;6.308;2022-12-07T16:40:09;5.13;;;0.45;;
52396;SDS011;38322;53.108;6.308;2022-12-07T16:42:35;2.60;;;0.60;;
52396;SDS011;38322;53.108;6.308;2022-12-07T16:45:01;5.82;;;0.70;;
52396;SDS011;38322;53.108;6.308;2022-12-07T16:47:28;7.05;;;2.00;;
52396;SDS011;38322;53.108;6.308;2022-12-07T16:49:54;4.18;;;0.88;;
52396;SDS011;38322;53.108;6.308;2022-12-07T16:52:20;2.08;;;0.30;;
52396;SDS011;38322;53.108;6.308;2022-12-07T16:54:47;3.65;;;1.13;;
52396;SDS011;38322;53.108;6.308;2022-12-07T16:57:13;1.52;;;0.32;;
52396;SDS011;38322;53.108;6.308;2022-12-07T16:59:40;4.53;;;0.98;;
52396;SDS011;38322;53.108;6.308;2022-12-07T17:02:05;1.73;;;0.85;;
52396;SDS011;38322;53.108;6.308;2022-12-07T17:04:32;3.17;;;0.32;;
52396;SDS011;38322;53.108;6.308;2022-12-07T17:06:58;4.05;;;1.50;;
52396;SDS011;38322;53.108;6.308;2022-12-07T17:09:24;1.50;;;0.40;;
52396;SDS011;38322;53.108;6.308;2022-12-07T17:11:50;5.28;;;0.35;;
52396;SDS011;38322;53.108;6.308;2022-12-07T17:14:17;4.70;;;1.10;;
52396;SDS011;38322;53.108;6.308;2022-12-07T17:17:01;3.20;;;0.35;;
52396;SDS011;38322;53.108;6.308;2022-12-07T17:19:29;4.75;;;0.45;;
52396;SDS011;38322;53.108;6.308;2022-12-07T17:21:55;3.13;;;0.30;;
52396;SDS011;38322;53.108;6.308;2022-12-07T17:24:21;5.10;;;0.80;;
52396;SDS011;38322;53.108;6.308;2022-12-07T17:26:48;5.13;;;0.60;;
52396;SDS011;38322;53.108;6.308;2022-12-07T17:29:15;2.28;;;0.60;;
52396;SDS011;38322;53.108;6.308;2022-12-07T17:31:42;2.75;;;0.73;;
52396;SDS011;38322;53.108;6.308;2022-12-07T17:34:10;4.68;;;0.68;;
52396;SDS011;38322;53.108;6.308;2022-12-07T17:36:37;4.53;;;0.55;;
52396;SDS011;38322;53.108;6.308;2022-12-07T17:39:07;2.92;;;0.45;;
52396;SDS011;38322;53.108;6.308;2022-12-07T17:41:34;7.65;;;1.40;;
52396;SDS011;38322;53.108;6.308;2022-12-07T17:44:19;6.00;;;1.02;;
52396;SDS011;38322;53.108;6.308;2022-12-07T17:46:46;3.88;;;0.60;;
52396;SDS011;38322;53.108;6.308;2022-12-07T17:49:14;4.75;;;0.93;;
52396;SDS011;38322;53.108;6.308;2022-12-07T17:51:40;2.83;;;1.13;;
52396;SDS011;38322;53.108;6.308;2022-12-07T17:54:24;4.95;;;1.80;;
52396;SDS011;38322;53.108;6.308;2022-12-07T17:56:51;4.38;;;1.15;;
52396;SDS011;38322;53.108;6.308;2022-12-07T17:59:17;4.28;;;0.90;;
52396;SDS011;38322;53.108;6.308;2022-12-07T18:01:42;4.40;;;1.20;;
52396;SDS011;38322;53.108;6.308;2022-12-07T18:04:09;2.75;;;1.70;;
52396;SDS011;38322;53.108;6.308;2022-12-07T18:06:35;5.22;;;2.00;;
52396;SDS011;38322;53.108;6.308;2022-12-07T18:09:02;3.25;;;1.08;;
52396;SDS011;38322;53.108;6.308;2022-12-07T18:11:28;3.80;;;1.35;;
52396;SDS011;38322;53.108;6.308;2022-12-07T18:13:54;5.82;;;0.77;;
52396;SDS011;38322;53.108;6.308;2022-12-07T18:16:22;2.95;;;0.95;;
52396;SDS011;38322;53.108;6.308;2022-12-07T18:18:49;3.50;;;1.38;;
52396;SDS011;38322;53.108;6.308;2022-12-07T18:21:18;5.97;;;0.82;;
52396;SDS011;38322;53.108;6.308;2022-12-07T18:23:47;2.40;;;0.98;;
52396;SDS011;38322;53.108;6.308;2022-12-07T18:26:14;3.95;;;1.50;;
52396;SDS011;38322;53.108;6.308;2022-12-07T18:28:41;3.10;;;1.40;;
52396;SDS011;38322;53.108;6.308;2022-12-07T18:31:09;2.10;;;1.13;;
52396;SDS011;38322;53.108;6.308;2022-12-07T18:33:35;5.55;;;1.30;;
52396;SDS011;38322;53.108;6.308;2022-12-07T18:36:02;3.95;;;1.55;;
52396;SDS011;38322;53.108;6.308;2022-12-07T18:38:28;2.92;;;1.27;;
52396;SDS011;38322;53.108;6.308;2022-12-07T18:40:55;6.53;;;1.10;;
52396;SDS011;38322;53.108;6.308;2022-12-07T18:43:21;1.42;;;0.93;;
52396;SDS011;38322;53.108;6.308;2022-12-07T18:45:50;1.35;;;0.70;;
52396;SDS011;38322;53.108;6.308;2022-12-07T18:48:17;3.75;;;1.20;;
52396;SDS011;38322;53.108;6.308;2022-12-07T18:50:46;5.32;;;1.27;;
52396;SDS011;38322;53.108;6.308;2022-12-07T18:53:23;4.25;;;1.10;;
52396;SDS011;38322;53.108;6.308;2022-12-07T18:55:50;4.38;;;1.00;;
52396;SDS011;38322;53.108;6.308;2022-12-07T18:58:16;7.45;;;1.73;;
52396;SDS011;38322;53.108;6.308;2022-12-07T19:00:42;5.32;;;1.23;;
52396;SDS011;38322;53.108;6.308;2022-12-07T19:03:08;3.03;;;1.50;;
52396;SDS011;38322;53.108;6.308;2022-12-07T19:05:34;1.30;;;1.00;;
52396;SDS011;38322;53.108;6.308;2022-12-07T19:08:01;2.92;;;1.13;;
52396;SDS011;38322;53.108;6.308;2022-12-07T19:10:27;4.75;;;1.48;;
52396;SDS011;38322;53.108;6.308;2022-12-07T19:12:53;6.85;;;3.00;;
52396;SDS011;38322;53.108;6.308;2022-12-07T19:15:19;3.47;;;2.22;;
52396;SDS011;38322;53.108;6.308;2022-12-07T19:17:45;4.95;;;2.40;;
52396;SDS011;38322;53.108;6.308;2022-12-07T19:20:12;6.93;;;2.38;;
52396;SDS011;38322;53.108;6.308;2022-12-07T19:22:39;4.85;;;2.30;;
52396;SDS011;38322;53.108;6.308;2022-12-07T19:25:06;4.38;;;2.35;;
52396;SDS011;38322;53.108;6.308;2022-12-07T19:27:32;5.25;;;1.92;;
52396;SDS011;38322;53.108;6.308;2022-12-07T19:29:59;7.95;;;2.53;;
52396;SDS011;38322;53.108;6.308;2022-12-07T19:32:25;2.75;;;1.30;;
52396;SDS011;38322;53.108;6.308;2022-12-07T19:34:52;3.10;;;1.30;;
52396;SDS011;38322;53.108;6.308;2022-12-07T19:37:19;5.03;;;1.58;;
52396;SDS011;38322;53.108;6.308;2022-12-07T19:39:45;3.80;;;2.00;;
52396;SDS011;38322;53.108;6.308;2022-12-07T19:42:12;5.50;;;2.17;;
52396;SDS011;38322;53.108;6.308;2022-12-07T19:44:39;4.15;;;1.48;;
52396;SDS011;38322;53.108;6.308;2022-12-07T19:47:05;6.32;;;2.95;;
52396;SDS011;38322;53.108;6.308;2022-12-07T19:49:32;5.13;;;2.53;;
52396;SDS011;38322;53.108;6.308;2022-12-07T19:52:02;5.18;;;2.10;;
52396;SDS011;38322;53.108;6.308;2022-12-07T19:54:30;4.13;;;1.90;;
52396;SDS011;38322;53.108;6.308;2022-12-07T19:56:57;8.23;;;1.92;;
52396;SDS011;38322;53.108;6.308;2022-12-07T19:59:25;2.58;;;1.35;;
52396;SDS011;38322;53.108;6.308;2022-12-07T20:01:52;5.82;;;3.33;;
52396;SDS011;38322;53.108;6.308;2022-12-07T20:04:21;4.70;;;2.35;;
52396;SDS011;38322;53.108;6.308;2022-12-07T20:06:50;9.38;;;3.08;;
52396;SDS011;38322;53.108;6.308;2022-12-07T20:09:18;6.13;;;2.40;;
52396;SDS011;38322;53.108;6.308;2022-12-07T20:11:45;4.63;;;2.90;;
52396;SDS011;38322;53.108;6.308;2022-12-07T20:14:29;6.10;;;2.72;;
52396;SDS011;38322;53.108;6.308;2022-12-07T20:16:55;4.10;;;2.47;;
52396;SDS011;38322;53.108;6.308;2022-12-07T20:19:22;6.18;;;2.60;;
52396;SDS011;38322;53.108;6.308;2022-12-07T20:21:49;6.18;;;2.95;;
52396;SDS011;38322;53.108;6.308;2022-12-07T20:24:17;7.07;;;3.15;;
52396;SDS011;38322;53.108;6.308;2022-12-07T20:26:46;4.75;;;3.53;;
52396;SDS011;38322;53.108;6.308;2022-12-07T20:29:14;7.07;;;3.65;;
52396;SDS011;38322;53.108;6.308;2022-12-07T20:31:41;5.05;;;2.45;;
52396;SDS011;38322;53.108;6.308;2022-12-07T20:34:08;6.10;;;3.08;;
52396;SDS011;38322;53.108;6.308;2022-12-07T20:36:34;5.65;;;3.10;;
52396;SDS011;38322;53.108;6.308;2022-12-07T20:39:00;2.60;;;1.83;;
52396;SDS011;38322;53.108;6.308;2022-12-07T20:41:27;11.48;;;2.60;;
52396;SDS011;38322;53.108;6.308;2022-12-07T20:44:12;7.63;;;1.80;;
52396;SDS011;38322;53.108;6.308;2022-12-07T20:46:38;5.30;;;2.10;;
52396;SDS011;38322;53.108;6.308;2022-12-07T20:49:04;6.30;;;2.10;;
52396;SDS011;38322;53.108;6.308;2022-12-07T20:51:30;6.82;;;2.47;;
52396;SDS011;38322;53.108;6.308;2022-12-07T20:53:56;5.65;;;1.75;;
52396;SDS011;38322;53.108;6.308;2022-12-07T20:56:24;3.65;;;2.05;;
52396;SDS011;38322;53.108;6.308;2022-12-07T20:58:53;7.20;;;2.58;;
